Time;durP1;ratioP1;P1;durP2;ratioP2;P2;SDS_P1;SDS_P2;PMS_P1;PMS_P2;Temp;Humidity;BMP_temperature;BMP_pressure;BME280_temperature;BME280_humidity;BME280_pressure;Samples;Min_cycle;Max_cycle;Signal;HPM_P1;HPM_P2
2022/06/21 00:01:32;;;;;;;2.77;2.57;;;;;;;11.34;84.22;100595.59;5054449;28;20492;-65
2022/06/21 00:03:58;;;;;;;3.58;3.28;;;;;;;11.26;84.16;100594.75;5054160;28;20048;-65
2022/06/21 00:06:26;;;;;;;2.77;2.30;;;;;;;11.19;84.82;100586.63;5054194;28;20036;-64
2022/06/21 00:08:52;;;;;;;4.13;2.80;;;;;;;11.09;85.19;100593.97;5054015;28;20044;-64
2022/06/21 00:11:25;;;;;;;2.70;2.50;;;;;;;11.00;85.95;100576.34;5053867;28;20072;-64
2022/06/21 00:13:51;;;;;;;3.70;2.87;;;;;;;11.15;86.32;100603.97;5054145;28;20037;-65
2022/06/21 00:16:17;;;;;;;5.83;3.60;;;;;;;11.04;87.42;100589.16;5054335;28;20502;-66
2022/06/21 00:18:45;;;;;;;4.03;3.63;;;;;;;11.02;88.96;100582.34;5054082;28;20037;-64
2022/06/21 00:21:17;;;;;;;3.95;3.65;;;;;;;11.10;89.26;100584.97;5054114;28;20033;-64
2022/06/21 00:23:44;;;;;;;3.97;3.57;;;;;;;11.15;89.67;100590.63;5053685;28;20037;-65
2022/06/21 00:26:14;;;;;;;4.03;3.47;;;;;;;10.93;90.15;100554.88;5054027;28;20127;-64
2022/06/21 00:28:40;;;;;;;4.67;3.80;;;;;;;11.16;90.70;100590.47;5053739;28;20068;-64
2022/06/21 00:31:29;;;;;;;4.90;3.50;;;;;;;11.18;91.34;100592.94;5053054;28;20072;-65
2022/06/21 00:33:56;;;;;;;5.00;4.17;;;;;;;11.12;91.00;100577.66;5053122;28;20045;-64
2022/06/21 00:36:33;;;;;;;3.90;3.57;;;;;;;11.11;91.60;100570.66;5053256;28;20029;-65
2022/06/21 00:39:00;;;;;;;4.40;4.00;;;;;;;11.15;90.98;100566.66;5053817;28;20037;-64
2022/06/21 00:41:49;;;;;;;7.13;4.27;;;;;;;11.29;91.08;100570.44;5053393;28;20124;-64
2022/06/21 00:44:48;;;;;;;5.07;4.43;;;;;;;11.20;91.12;100552.78;5053230;28;20585;-67
2022/06/21 00:47:22;;;;;;;3.30;3.00;;;;;;;11.23;90.77;100561.28;5052722;28;20107;-65
2022/06/21 00:50:27;;;;;;;3.90;3.50;;;;;;;11.37;90.72;100570.41;5053304;28;20033;-66
2022/06/21 00:53:11;;;;;;;5.50;3.90;;;;;;;11.37;90.28;100573.06;5053068;28;20113;-65
2022/06/21 00:55:42;;;;;;;6.23;4.00;;;;;;;11.41;90.39;100563.72;5053355;28;20037;-65
2022/06/21 00:58:14;;;;;;;3.97;3.67;;;;;;;11.36;89.78;100563.41;5052976;28;20136;-66
2022/06/21 01:00:49;;;;;;;5.33;4.30;;;;;;;11.42;90.33;100568.88;5053390;28;20044;-63
2022/06/21 01:03:22;;;;;;;4.13;3.70;;;;;;;11.10;89.48;100516.53;5053282;28;20439;-65
2022/06/21 01:05:48;;;;;;;4.93;4.40;;;;;;;11.40;89.60;100562.91;5052423;28;20037;-65
2022/06/21 01:08:20;;;;;;;4.50;3.97;;;;;;;11.37;90.14;100557.09;5053451;28;20542;-64
2022/06/21 01:10:49;;;;;;;4.60;3.90;;;;;;;11.24;89.36;100548.78;5053815;28;20032;-66
2022/06/21 01:13:20;;;;;;;4.33;3.93;;;;;;;11.33;90.28;100553.94;5053810;28;20083;-63
2022/06/21 01:15:49;;;;;;;5.10;4.23;;;;;;;11.35;90.54;100541.25;5053668;28;20148;-66
2022/06/21 01:18:17;;;;;;;4.60;4.20;;;;;;;11.48;90.92;100541.53;5052962;28;20032;-65
2022/06/21 01:20:47;;;;;;;5.18;4.68;;;;;;;11.61;90.71;100551.66;5052790;28;20032;-67
2022/06/21 01:23:40;;;;;;;6.30;4.67;;;;;;;11.71;90.11;100543.41;5052973;28;20049;-66
2022/06/21 01:26:31;;;;;;;5.90;4.40;;;;;;;11.74;90.25;100543.06;5051400;28;20045;-65
2022/06/21 01:28:59;;;;;;;8.63;6.43;;;;;;;11.78;89.94;100552.41;5052634;28;20088;-66
2022/06/21 01:31:25;;;;;;;5.87;4.73;;;;;;;11.81;90.06;100546.72;5052393;28;20500;-66
2022/06/21 01:33:51;;;;;;;7.17;5.17;;;;;;;11.75;89.48;100531.38;5052889;28;20120;-65
2022/06/21 01:36:28;;;;;;;5.70;4.53;;;;;;;11.83;89.45;100527.84;5053248;28;20094;-64
2022/06/21 01:39:03;;;;;;;4.60;3.97;;;;;;;11.77;88.75;100529.38;5051331;28;20068;-65
2022/06/21 01:41:51;;;;;;;3.63;3.23;;;;;;;11.90;89.18;100551.03;5052677;28;20486;-66
2022/06/21 01:44:26;;;;;;;5.17;4.30;;;;;;;11.89;89.65;100533.34;5053195;28;20124;-65
2022/06/21 01:46:52;;;;;;;4.73;4.13;;;;;;;11.87;89.08;100535.38;5052580;28;20033;-65
2022/06/21 01:49:22;;;;;;;4.17;3.80;;;;;;;11.88;89.25;100537.03;5051923;28;20396;-64
2022/06/21 01:52:00;;;;;;;3.97;3.37;;;;;;;11.89;88.40;100530.69;5084371;28;20555;-66
2022/06/21 01:54:28;;;;;;;;;;;;;;;11.99;87.89;100541.94;5052592;28;20051;-65
2022/06/21 01:56:54;;;;;;;3.67;3.38;;;;;;;11.91;87.88;100528.66;5050805;28;20403;-64
2022/06/21 01:59:30;;;;;;;4.00;3.60;;;;;;;11.97;87.65;100545.78;5051907;28;20049;-65
2022/06/21 02:02:06;;;;;;;4.83;3.93;;;;;;;11.90;87.65;100532.34;5051063;28;20396;-66
2022/06/21 02:04:40;;;;;;;4.90;4.00;;;;;;;12.01;87.41;100542.59;5052214;28;20037;-65
2022/06/21 02:07:09;;;;;;;4.97;4.47;;;;;;;11.86;87.50;100520.34;5052058;28;20036;-63
2022/06/21 02:09:42;;;;;;;5.10;4.70;;;;;;;11.91;87.45;100528.66;5051737;28;20041;-65
2022/06/21 02:12:12;;;;;;;4.97;3.77;;;;;;;11.95;87.60;100540.63;5051385;28;20033;-67
2022/06/21 02:14:42;;;;;;;4.50;4.10;;;;;;;11.92;87.19;100527.66;5051596;28;20326;-64
2022/06/21 02:17:20;;;;;;;8.00;4.47;;;;;;;11.67;87.34;100486.09;5051965;28;20044;-63
2022/06/21 02:19:51;;;;;;;4.70;3.85;;;;;;;11.97;87.88;100535.94;5050671;28;20202;-64
2022/06/21 02:22:20;;;;;;;4.17;3.77;;;;;;;11.98;87.16;100526.09;5051887;28;20049;-66
2022/06/21 02:24:47;;;;;;;4.40;4.00;;;;;;;12.09;86.90;100539.84;5051907;28;20440;-64
2022/06/21 02:27:16;;;;;;;4.50;3.70;;;;;;;12.07;86.81;100530.38;5051723;28;20037;-64
2022/06/21 02:29:50;;;;;;;7.97;5.20;;;;;;;12.10;85.83;100538.84;5051814;28;20036;-66
2022/06/21 02:32:26;;;;;;;3.93;3.63;;;;;;;12.07;85.25;100533.03;5051755;28;20049;-64
2022/06/21 02:34:58;;;;;;;4.40;4.00;;;;;;;11.98;85.74;100521.59;5051603;28;20052;-65
2022/06/21 02:37:25;;;;;;;4.90;4.10;;;;;;;11.95;84.79;100521.97;5051723;28;20511;-67
2022/06/21 02:39:51;;;;;;;4.47;3.17;;;;;;;11.89;84.15;100521.84;5051887;28;20084;-66
2022/06/21 02:42:22;;;;;;;4.93;3.63;;;;;;;11.79;84.10;100514.03;5051427;28;20069;-64
2022/06/21 02:44:57;;;;;;;3.53;3.20;;;;;;;11.52;83.86;100461.16;5051649;28;20037;-64
2022/06/21 02:47:39;;;;;;;4.97;3.30;;;;;;;12.06;82.92;100529.53;5050083;28;20431;-66
2022/06/21 02:50:16;;;;;;;3.67;3.30;;;;;;;12.15;83.10;100534.84;5051720;28;20044;-65
2022/06/21 02:52:42;;;;;;;3.10;2.73;;;;;;;12.27;82.23;100552.09;5051514;28;20063;-65
2022/06/21 02:55:52;;;;;;;5.57;3.00;;;;;;;12.43;81.83;100545.78;5053889;28;20215;-65
2022/06/21 02:58:40;;;;;;;3.60;3.27;;;;;;;12.64;80.95;100537.91;5050038;28;20052;-64
2022/06/21 03:01:19;;;;;;;;;;;;;;;12.81;78.86;100533.25;5054470;28;20079;-65
2022/06/21 03:03:45;;;;;;;3.17;2.80;;;;;;;12.83;78.06;100518.69;5055656;28;19927;-65
2022/06/21 03:06:16;;;;;;;4.07;3.40;;;;;;;14.33;73.51;100546.66;5055009;28;20040;-63
2022/06/21 03:08:58;;;;;;;2.67;2.47;;;;;;;14.77;70.30;100549.13;5055056;28;20041;-66
2022/06/21 03:11:28;;;;;;;3.30;2.63;;;;;;;14.38;70.24;100538.88;5055083;28;20497;-67
2022/06/21 03:13:56;;;;;;;2.97;2.77;;;;;;;14.81;69.86;100539.69;5054857;28;20127;-64
2022/06/21 03:16:22;;;;;;;3.17;2.83;;;;;;;15.97;65.78;100529.09;5054767;28;20040;-66
2022/06/21 03:18:56;;;;;;;3.57;2.77;;;;;;;16.79;63.46;100550.28;5054608;28;20044;-63
2022/06/21 03:21:34;;;;;;;2.53;2.13;;;;;;;16.03;64.89;100550.59;5055041;28;20041;-64
2022/06/21 03:24:04;;;;;;;3.38;2.63;;;;;;;14.91;67.24;100506.31;5054837;28;20041;-65
2022/06/21 03:26:30;;;;;;;3.37;3.07;;;;;;;14.64;68.86;100532.09;5054669;28;20033;-65
2022/06/21 03:28:55;;;;;;;3.97;3.23;;;;;;;14.74;69.60;100540.63;5054409;28;20055;-64
2022/06/21 03:31:34;;;;;;;4.03;3.00;;;;;;;15.75;66.21;100542.66;5053303;28;20416;-65
2022/06/21 03:34:03;;;;;;;3.20;3.00;;;;;;;16.86;62.72;100537.66;5054547;28;20041;-66
2022/06/21 03:36:29;;;;;;;3.03;2.83;;;;;;;18.12;58.05;100534.47;5054551;28;20040;-64
2022/06/21 03:38:59;;;;;;;3.50;3.03;;;;;;;19.54;54.32;100549.81;5054549;28;20524;-66
2022/06/21 03:41:43;;;;;;;3.17;2.97;;;;;;;20.77;50.24;100543.03;5054312;28;20044;-67
2022/06/21 03:44:24;;;;;;;4.63;2.90;;;;;;;21.69;47.13;100562.19;5054535;28;20037;-64
2022/06/21 03:47:01;;;;;;;2.50;2.27;;;;;;;20.54;48.97;100550.09;5054734;28;20041;-66
2022/06/21 03:49:34;;;;;;;5.10;2.47;;;;;;;19.42;52.81;100555.13;5054336;28;20509;-67
2022/06/21 03:52:03;;;;;;;4.00;2.90;;;;;;;18.42;54.20;100558.94;5054142;28;20083;-64
2022/06/21 03:54:35;;;;;;;2.40;2.20;;;;;;;17.56;56.09;100544.06;5054334;28;20079;-65
2022/06/21 03:57:05;;;;;;;3.40;3.10;;;;;;;17.44;56.39;100558.41;5054303;28;20039;-70
2022/06/21 03:59:43;;;;;;;3.27;2.83;;;;;;;17.98;55.51;100541.00;5053945;28;20524;-66
2022/06/21 04:02:25;;;;;;;3.95;3.40;;;;;;;18.53;54.09;100542.91;5054116;28;20080;-64
2022/06/21 04:04:57;;;;;;;5.10;3.33;;;;;;;18.73;51.18;100537.34;5053951;28;20037;-69
2022/06/21 04:07:46;;;;;;;3.40;3.10;;;;;;;19.15;50.37;100560.00;5052455;28;20028;-65
2022/06/21 04:10:33;;;;;;;4.80;3.50;;;;;;;18.16;52.09;100560.78;5054564;28;20032;-64
2022/06/21 04:13:05;;;;;;;4.37;3.00;;;;;;;16.98;55.88;100527.88;5054471;28;20036;-64
2022/06/21 04:15:49;;;;;;;3.37;3.07;;;;;;;17.60;55.96;100553.38;5054135;28;20032;-67
2022/06/21 04:18:23;;;;;;;4.53;4.13;;;;;;;18.62;52.71;100546.16;5053983;28;20067;-66
2022/06/21 04:21:00;;;;;;;3.13;2.40;;;;;;;19.02;50.07;100545.78;5053664;28;20087;-67
2022/06/21 04:24:04;;;;;;;5.03;2.43;;;;;;;17.58;53.51;100555.44;5052579;28;20062;-65
2022/06/21 04:26:36;;;;;;;5.40;3.20;;;;;;;16.42;57.84;100549.00;5053722;28;20056;-67
2022/06/21 04:29:10;;;;;;;4.77;3.40;;;;;;;15.71;59.40;100540.59;5053827;28;20051;-66
2022/06/21 04:31:46;;;;;;;4.23;2.60;;;;;;;15.49;61.46;100534.47;5053484;28;20039;-66
2022/06/21 04:34:35;;;;;;;2.57;2.30;;;;;;;15.43;61.11;100559.44;5035995;28;20460;-65
2022/06/21 04:37:08;;;;;;;3.03;2.73;;;;;;;15.52;60.83;100549.34;5053492;28;20083;-65
2022/06/21 04:39:42;;;;;;;5.13;3.00;;;;;;;15.57;60.93;100555.78;5053400;28;20041;-65
2022/06/21 04:42:26;;;;;;;4.73;3.20;;;;;;;17.04;56.16;100529.72;5053388;28;20037;-69
2022/06/21 04:45:02;;;;;;;4.23;2.60;;;;;;;17.24;55.61;100548.53;5054102;28;20039;-64
2022/06/21 04:47:44;;;;;;;2.60;2.40;;;;;;;16.73;57.73;100540.34;5054545;28;20562;-65
2022/06/21 04:50:19;;;;;;;4.23;3.53;;;;;;;18.01;55.01;100549.47;5053097;28;20040;-67
2022/06/21 04:52:57;;;;;;;3.97;2.67;;;;;;;19.27;50.59;100538.47;5053327;28;20029;-65
2022/06/21 04:55:40;;;;;;;3.33;2.73;;;;;;;19.70;47.93;100546.50;5053053;28;20036;-66
2022/06/21 05:01:29;;;;;;;5.17;2.63;;;;;;;19.41;47.73;100436.53;5053167;28;20113;-69
2022/06/21 05:03:52;;;;;;;5.47;2.67;;;;;;;19.88;47.03;100518.59;5053156;28;20041;-66
2022/06/21 05:06:19;;;;;;;5.50;3.17;;;;;;;19.16;49.14;100521.16;5052666;28;20044;-66
2022/06/21 05:08:47;;;;;;;5.20;3.10;;;;;;;20.06;47.88;100537.47;5052268;28;20040;-65
2022/06/21 05:11:14;;;;;;;2.23;2.03;;;;;;;19.48;47.61;100523.69;5052183;28;20055;-65
2022/06/21 05:13:44;;;;;;;2.30;2.00;;;;;;;19.15;48.00;100541.09;5052433;28;20037;-65
2022/06/21 05:16:33;;;;;;;1.97;1.77;;;;;;;19.31;48.81;100545.06;5053163;28;20163;-65
2022/06/21 05:19:19;;;;;;;3.67;2.30;;;;;;;19.11;49.34;100531.81;5052748;28;20427;-66
2022/06/21 05:21:55;;;;;;;4.30;2.57;;;;;;;18.54;50.71;100539.16;5052492;28;20060;-66
2022/06/21 05:24:22;;;;;;;5.07;2.43;;;;;;;18.06;51.86;100536.19;5052822;28;20039;-65
2022/06/21 05:27:10;;;;;;;3.27;2.30;;;;;;;17.75;53.52;100546.94;5052538;28;20033;-67
2022/06/21 05:30:04;;;;;;;2.27;2.07;;;;;;;16.91;56.58;100548.59;5049322;28;20052;-66
2022/06/21 05:32:38;;;;;;;2.07;1.87;;;;;;;16.35;58.40;100542.78;5052806;28;20040;-66
2022/06/21 05:35:11;;;;;;;2.10;1.90;;;;;;;16.10;60.06;100555.97;5052652;28;20041;-68
2022/06/21 05:37:49;;;;;;;2.53;1.77;;;;;;;15.91;61.13;100556.78;5052693;28;20040;-64
2022/06/21 05:40:23;;;;;;;2.07;1.87;;;;;;;16.07;59.88;100562.59;5052208;28;20463;-64
2022/06/21 05:42:49;;;;;;;2.50;1.77;;;;;;;15.46;60.09;100454.38;5052388;28;20036;-63
2022/06/21 05:45:16;;;;;;;2.37;2.07;;;;;;;16.06;60.55;100544.81;5051887;28;20515;-66
2022/06/21 05:47:47;;;;;;;3.53;1.50;;;;;;;16.09;60.05;100554.31;5052195;28;20044;-65
2022/06/21 05:50:18;;;;;;;2.30;2.10;;;;;;;15.99;59.49;100554.72;5052239;28;20039;-65
2022/06/21 05:52:49;;;;;;;3.13;2.03;;;;;;;16.10;59.56;100555.97;5052046;28;20037;-62
2022/06/21 05:55:20;;;;;;;2.50;2.30;;;;;;;16.43;59.78;100562.22;5052120;28;20040;-66
2022/06/21 05:57:50;;;;;;;3.07;1.97;;;;;;;16.46;59.18;100566.34;5052054;28;20303;-65
2022/06/21 06:00:39;;;;;;;3.10;1.93;;;;;;;16.26;59.37;100550.22;5051890;28;20045;-66
2022/06/21 06:03:12;;;;;;;2.40;2.20;;;;;;;16.27;59.48;100554.56;5050762;28;20045;-68
2022/06/21 06:05:44;;;;;;;2.30;2.20;;;;;;;16.27;59.48;100578.75;5052145;28;20144;-67
2022/06/21 06:08:18;;;;;;;2.20;1.83;;;;;;;16.30;60.37;100578.34;5051714;28;20068;-66
2022/06/21 06:10:44;;;;;;;2.30;2.00;;;;;;;16.18;59.21;100553.09;5051851;28;20475;-65
2022/06/21 06:13:17;;;;;;;2.97;2.13;;;;;;;16.09;61.01;100573.13;5051637;28;20090;-65
2022/06/21 06:15:50;;;;;;;2.77;2.40;;;;;;;15.84;62.57;100569.34;5051536;28;20052;-65
2022/06/21 06:18:18;;;;;;;2.30;1.90;;;;;;;15.65;62.12;100570.94;5051990;28;20033;-69
2022/06/21 06:20:51;;;;;;;3.25;2.33;;;;;;;15.10;63.08;100552.03;5050682;28;20033;-69
2022/06/21 06:23:41;;;;;;;3.67;2.23;;;;;;;14.94;63.47;100565.75;5050776;28;20094;-66
2022/06/21 06:26:14;;;;;;;3.53;1.83;;;;;;;14.94;63.51;100573.78;5051410;28;20041;-64
2022/06/21 06:28:46;;;;;;;2.30;2.10;;;;;;;14.90;63.32;100569.84;5051594;28;20037;-66
2022/06/21 06:31:23;;;;;;;1.67;1.57;;;;;;;14.98;62.50;100534.81;5054697;28;20076;-66
2022/06/21 06:33:55;;;;;;;2.03;1.88;;;;;;;15.00;61.67;100500.59;5055755;28;20068;-65
2022/06/21 06:36:44;;;;;;;1.80;1.70;;;;;;;15.69;60.81;100575.69;5055656;28;20079;-64
2022/06/21 06:39:22;;;;;;;1.63;1.53;;;;;;;16.01;60.82;100568.78;5055949;28;20076;-65
2022/06/21 06:41:57;;;;;;;1.30;1.03;;;;;;;16.26;57.91;100571.72;5055970;28;20385;-66
2022/06/21 06:44:33;;;;;;;1.43;1.33;;;;;;;16.28;56.90;100564.28;5055497;28;20045;-64
2022/06/21 06:47:02;;;;;;;1.77;1.53;;;;;;;16.27;58.29;100561.81;5055217;28;20032;-65
2022/06/21 06:50:09;;;;;;;2.47;1.77;;;;;;;16.28;56.76;100575.03;5055370;28;20037;-66
2022/06/21 06:52:58;;;;;;;2.05;1.85;;;;;;;15.84;57.86;100556.72;5053254;28;20072;-65
2022/06/21 06:55:46;;;;;;;2.90;1.90;;;;;;;15.68;59.25;100568.66;5055287;28;20033;-66
2022/06/21 06:58:28;;;;;;;2.30;1.77;;;;;;;15.57;58.13;100561.13;5055185;28;20033;-65
2022/06/21 07:01:02;;;;;;;3.07;2.03;;;;;;;15.43;58.68;100522.69;5055325;28;20041;-64
2022/06/21 07:03:36;;;;;;;2.30;1.70;;;;;;;15.86;57.52;100569.94;5055256;28;20428;-65
2022/06/21 07:06:47;;;;;;;5.50;2.00;;;;;;;15.86;57.22;100564.59;5055678;28;20060;-66
2022/06/21 07:09:21;;;;;;;5.30;1.77;;;;;;;15.97;56.67;100566.69;5055184;28;20045;-66
2022/06/21 07:12:07;;;;;;;1.73;1.63;;;;;;;16.04;55.22;100559.47;5055150;28;20052;-66
2022/06/21 07:14:34;;;;;;;2.97;1.50;;;;;;;16.25;54.62;100562.00;5055216;28;20443;-66
2022/06/21 07:17:32;;;;;;;1.80;1.40;;;;;;;16.34;54.08;100536.59;5054947;28;20037;-64
2022/06/21 07:19:58;;;;;;;2.70;1.83;;;;;;;16.84;52.81;100553.16;5054746;28;20037;-65
2022/06/21 07:22:31;;;;;;;3.30;1.60;;;;;;;17.01;51.09;100546.28;5054972;28;20090;-67
2022/06/21 07:25:12;;;;;;;1.57;1.40;;;;;;;17.05;52.08;100554.78;5054885;28;20052;-66
2022/06/21 07:27:40;;;;;;;2.80;1.60;;;;;;;16.72;52.11;100549.44;5054768;28;20048;-67
2022/06/21 07:30:10;;;;;;;4.07;2.10;;;;;;;16.68;53.11;100549.03;5054699;28;20492;-63
2022/06/21 07:32:42;;;;;;;1.90;1.47;;;;;;;16.34;53.59;100498.97;5054886;28;20128;-66
2022/06/21 07:35:39;;;;;;;2.17;1.87;;;;;;;16.50;54.25;100561.44;5055033;28;20033;-64
2022/06/21 07:38:17;;;;;;;2.30;1.40;;;;;;;15.91;55.17;100570.19;5054854;28;20499;-66
2022/06/21 07:41:23;;;;;;;5.68;2.75;;;;;;;15.60;56.24;100563.44;5054158;28;20450;-66
2022/06/21 07:43:54;;;;;;;2.20;1.60;;;;;;;15.36;55.96;100570.16;5054662;28;20043;-66
2022/06/21 07:46:28;;;;;;;1.80;1.70;;;;;;;15.36;56.02;100572.00;5055909;28;20134;-66
2022/06/21 07:49:27;;;;;;;2.80;1.60;;;;;;;15.58;56.18;100568.19;5055358;28;20036;-67
2022/06/21 07:52:00;;;;;;;3.03;1.30;;;;;;;15.78;53.62;100565.59;5052385;28;20055;-65
2022/06/21 07:54:37;;;;;;;2.80;1.83;;;;;;;16.11;54.35;100565.69;5054420;28;20171;-66
2022/06/21 07:57:13;;;;;;;5.70;3.03;;;;;;;16.35;53.61;100534.72;5054317;28;20040;-66
2022/06/21 07:59:45;;;;;;;1.90;1.67;;;;;;;16.69;52.30;100566.00;5052472;28;20187;-66
2022/06/21 08:08:15;;;;;;;1.87;1.67;;;;;;;16.63;53.14;100564.09;5053935;28;20455;-65
2022/06/21 08:11:18;;;;;;;1.93;1.70;;;;;;;16.60;52.85;100576.09;5054657;28;20064;-65
2022/06/21 08:13:45;;;;;;;1.87;1.53;;;;;;;16.07;51.97;100535.72;5042351;28;20369;-66
2022/06/21 08:16:14;;;;;;;2.90;1.47;;;;;;;15.98;52.46;100562.97;5053981;28;20029;-64
2022/06/21 08:19:00;;;;;;;2.73;1.63;;;;;;;15.78;52.11;100555.69;5052846;28;20037;-65
2022/06/21 08:21:33;;;;;;;3.70;1.63;;;;;;;15.71;52.97;100560.22;5054147;28;20033;-65
2022/06/21 08:24:10;;;;;;;1.60;1.40;;;;;;;15.79;53.92;100548.47;5054072;28;20071;-65
2022/06/21 08:26:45;;;;;;;1.77;1.50;;;;;;;15.72;51.67;100575.28;5053070;28;20033;-66
2022/06/21 08:29:27;;;;;;;3.90;1.40;;;;;;;15.55;51.66;100546.25;5053750;28;20033;-65
2022/06/21 08:32:01;;;;;;;1.40;1.30;;;;;;;15.57;51.27;100563.00;5054294;28;20025;-64
2022/06/21 08:34:48;;;;;;;1.40;1.30;;;;;;;15.60;51.40;100555.41;5053893;28;20064;-66
2022/06/21 08:37:55;;;;;;;1.43;1.33;;;;;;;15.69;50.79;100551.53;5054860;28;20032;-64
2022/06/21 08:40:45;;;;;;;1.97;1.50;;;;;;;15.90;49.95;100547.03;5046232;28;20040;-64
2022/06/21 08:43:24;;;;;;;1.90;1.70;;;;;;;15.99;51.45;100570.00;5053622;28;20473;-65
2022/06/21 08:46:36;;;;;;;1.70;1.40;;;;;;;15.96;49.91;100565.03;5054127;28;20061;-65
2022/06/21 08:49:23;;;;;;;1.63;1.53;;;;;;;15.84;49.89;100567.47;5047917;28;20136;-65
2022/06/21 08:52:07;;;;;;;2.07;1.80;;;;;;;16.00;49.93;100567.13;5052705;28;20043;-66
2022/06/21 08:54:51;;;;;;;1.93;1.73;;;;;;;16.20;48.79;100559.13;5053717;28;20029;-65
2022/06/21 08:57:39;;;;;;;2.47;1.60;;;;;;;16.39;47.89;100562.84;5053581;28;20041;-66
2022/06/21 09:00:21;;;;;;;2.08;1.70;;;;;;;16.36;48.55;100571.31;5053773;28;20064;-64
2022/06/21 09:03:17;;;;;;;1.83;1.73;;;;;;;16.41;48.83;100564.28;5054278;28;20068;-65
2022/06/21 09:05:57;;;;;;;5.67;2.00;;;;;;;16.40;49.11;100557.25;5055245;28;20050;-67
2022/06/21 09:08:36;;;;;;;2.43;1.90;;;;;;;16.48;48.70;100561.63;5053414;28;20076;-64
2022/06/21 09:11:04;;;;;;;1.87;1.67;;;;;;;16.59;49.10;100566.38;5052954;28;20067;-65
2022/06/21 09:13:57;;;;;;;2.13;1.92;;;;;;;16.70;48.04;100570.31;5052944;28;20033;-63
2022/06/21 09:16:47;;;;;;;2.73;1.60;;;;;;;16.88;48.32;100569.72;5052560;28;20390;-66
2022/06/21 09:19:41;;;;;;;4.13;1.60;;;;;;;16.89;48.49;100569.50;5052627;28;20522;-66
2022/06/21 09:22:12;;;;;;;1.97;1.47;;;;;;;16.74;48.75;100574.25;5052463;28;20493;-64
2022/06/21 09:24:53;;;;;;;2.53;2.00;;;;;;;16.71;48.36;100580.06;5053599;28;20040;-66
2022/06/21 09:27:34;;;;;;;1.70;1.30;;;;;;;16.55;48.09;100575.06;5054824;28;20033;-64
2022/06/21 09:30:20;;;;;;;2.07;1.50;;;;;;;16.35;47.75;100565.13;5053007;28;20028;-66
2022/06/21 09:33:01;;;;;;;2.37;1.67;;;;;;;16.33;47.77;100559.13;5052571;28;20518;-65
2022/06/21 09:35:48;;;;;;;1.73;1.25;;;;;;;16.66;46.94;100582.53;5050837;28;20141;-65
2022/06/21 09:38:19;;;;;;;1.75;1.40;;;;;;;16.68;45.54;100567.84;5052330;28;20112;-66
2022/06/21 09:41:14;;;;;;;3.20;1.60;;;;;;;16.68;45.64;100562.47;5052677;28;20044;-66
2022/06/21 09:44:17;;;;;;;2.23;1.40;;;;;;;16.93;45.16;100565.34;5052793;28;20083;-65
2022/06/21 09:47:01;;;;;;;2.35;1.45;;;;;;;17.06;44.50;100566.34;5052951;28;20028;-66
2022/06/21 09:49:42;;;;;;;2.63;1.38;;;;;;;17.00;44.30;100568.84;5051083;28;20081;-65
2022/06/21 09:52:18;;;;;;;1.60;1.50;;;;;;;16.97;44.28;100558.50;5052203;28;20041;-65
2022/06/21 09:55:01;;;;;;;2.67;1.55;;;;;;;17.16;44.94;100550.63;5052455;28;20033;-65
2022/06/21 09:57:45;;;;;;;1.83;1.67;;;;;;;17.03;44.67;100520.00;5052454;28;20407;-65
2022/06/21 10:00:19;;;;;;;3.78;1.60;;;;;;;17.23;44.49;100571.09;5052290;28;20044;-67
2022/06/21 10:03:03;;;;;;;2.67;2.10;;;;;;;17.36;44.26;100575.63;5051920;28;20416;-64
2022/06/21 10:06:07;;;;;;;2.23;1.93;;;;;;;17.39;45.01;100572.53;5052050;28;20033;-66
2022/06/21 10:08:52;;;;;;;1.48;1.30;;;;;;;17.49;44.41;100572.88;5050760;28;20493;-64
2022/06/21 10:11:48;;;;;;;2.40;2.05;;;;;;;17.47;44.61;100553.44;5051782;28;20449;-64
2022/06/21 10:14:50;;;;;;;2.15;1.95;;;;;;;17.19;45.28;100528.69;5050390;28;20044;-64
2022/06/21 10:17:55;;;;;;;2.05;1.85;;;;;;;17.15;45.48;100570.50;5050376;28;20040;-66
2022/06/21 10:20:32;;;;;;;2.05;1.77;;;;;;;17.14;44.25;100576.94;5051807;28;20489;-66
2022/06/21 10:23:15;;;;;;;1.42;1.25;;;;;;;17.04;44.24;100562.00;5050353;28;20519;-64
2022/06/21 10:26:04;;;;;;;5.18;1.77;;;;;;;17.30;44.25;100563.00;5051202;28;20033;-65
2022/06/21 10:28:44;;;;;;;2.67;1.77;;;;;;;17.64;43.33;100559.19;5051711;28;20047;-66
2022/06/21 10:31:25;;;;;;;1.70;1.17;;;;;;;17.89;43.36;100570.06;5051668;28;20048;-64
2022/06/21 10:34:09;;;;;;;2.22;1.38;;;;;;;17.77;43.37;100544.84;5051715;28;20037;-66
2022/06/21 10:36:49;;;;;;;1.63;1.40;;;;;;;17.59;44.75;100565.19;5051762;28;20049;-66
2022/06/21 10:39:33;;;;;;;1.80;1.60;;;;;;;17.25;45.00;100546.66;5033781;28;20068;-65
2022/06/21 10:42:46;;;;;;;4.07;1.67;;;;;;;17.22;46.34;100565.94;5051691;28;20507;-65
2022/06/21 10:45:27;;;;;;;2.00;1.60;;;;;;;17.21;44.98;100570.47;5051921;28;20056;-66
2022/06/21 10:48:04;;;;;;;2.38;2.00;;;;;;;17.31;44.72;100567.34;5052745;28;20041;-65
2022/06/21 10:51:01;;;;;;;1.70;1.60;;;;;;;16.87;43.92;100457.78;5051968;28;20052;-64
2022/06/21 10:53:47;;;;;;;2.67;1.98;;;;;;;17.57;44.34;100569.13;5051504;28;20036;-65
2022/06/21 11:01:16;;;;;;;5.68;1.60;;;;;;;17.33;45.09;100557.19;5051247;28;20492;-66
2022/06/21 11:02:34;;;;;;;1.60;1.48;;;;;;;17.30;44.75;100546.84;5051221;28;20075;-66
2022/06/21 11:05:43;;;;;;;2.45;1.95;;;;;;;17.11;44.08;100563.88;5050033;28;20036;-66
2022/06/21 11:08:27;;;;;;;1.90;1.70;;;;;;;16.95;44.58;100571.34;5039864;28;20049;-66
2022/06/21 11:11:06;;;;;;;2.30;2.05;;;;;;;16.88;44.92;100562.47;5051442;28;20045;-66
2022/06/21 11:13:40;;;;;;;2.00;1.87;;;;;;;17.01;43.77;100559.75;5051143;28;20041;-67
2022/06/21 11:16:14;;;;;;;2.60;1.97;;;;;;;17.18;42.69;100554.75;5053956;28;20114;-68
2022/06/21 11:18:58;;;;;;;4.95;2.28;;;;;;;17.42;42.68;100555.13;5053639;28;20029;-64
2022/06/21 11:21:39;;;;;;;4.82;3.08;;;;;;;17.59;41.42;100567.88;5055003;28;20120;-64
2022/06/21 11:24:29;;;;;;;3.28;2.20;;;;;;;17.68;41.49;100554.22;5053573;28;20029;-66
2022/06/21 11:27:07;;;;;;;3.00;2.70;;;;;;;17.61;41.32;100511.09;5055212;28;20033;-66
2022/06/21 11:29:48;;;;;;;3.97;2.40;;;;;;;17.76;41.49;100544.03;5055039;28;20040;-66
2022/06/21 11:32:34;;;;;;;2.90;2.60;;;;;;;17.55;42.65;100560.44;5054758;28;20094;-64
2022/06/21 11:35:44;;;;;;;2.75;1.90;;;;;;;17.24;42.63;100564.69;5055015;28;20084;-66
2022/06/21 11:38:20;;;;;;;1.92;1.42;;;;;;;17.14;42.61;100550.00;5053174;28;20040;-65
2022/06/21 11:44:13;;;;;;;2.85;2.03;;;;;;;17.64;41.70;100554.63;5054627;28;20079;-66
2022/06/21 11:46:50;;;;;;;3.40;2.67;;;;;;;17.55;41.59;100528.94;5054529;28;20365;-66
2022/06/21 11:49:22;;;;;;;3.15;1.88;;;;;;;17.58;42.13;100551.94;5052984;28;20562;-66
2022/06/21 11:51:50;;;;;;;3.03;2.28;;;;;;;17.62;41.59;100534.31;5054649;28;20521;-65
2022/06/21 11:54:32;;;;;;;2.60;2.40;;;;;;;17.62;41.59;100545.06;5054873;28;20037;-65
2022/06/21 11:57:10;;;;;;;4.90;2.55;;;;;;;17.59;41.91;100546.34;5054911;28;20439;-64
2022/06/21 11:59:57;;;;;;;4.13;2.95;;;;;;;17.51;42.35;100549.28;5054146;28;20048;-65
2022/06/21 12:02:39;;;;;;;2.75;2.30;;;;;;;17.34;41.79;100553.47;5054267;28;20056;-66
2022/06/21 12:05:30;;;;;;;4.05;2.15;;;;;;;17.24;42.55;100548.53;5054134;28;20044;-67
2022/06/21 12:08:08;;;;;;;2.58;2.30;;;;;;;17.38;41.76;100546.63;5053909;28;20068;-65
2022/06/21 12:10:59;;;;;;;2.58;2.17;;;;;;;17.44;41.88;100548.47;5052935;28;20036;-66
2022/06/21 12:14:04;;;;;;;2.55;2.35;;;;;;;17.50;41.80;100539.53;5054305;28;20099;-66
2022/06/21 12:16:30;;;;;;;6.85;2.30;;;;;;;17.66;42.42;100546.31;5053992;28;20455;-64
2022/06/21 12:19:07;;;;;;;3.08;2.10;;;;;;;17.60;41.24;100518.34;5054200;28;20029;-65
2022/06/21 12:21:41;;;;;;;3.85;2.38;;;;;;;17.60;41.43;100533.69;5053847;28;20068;-67
2022/06/21 12:24:20;;;;;;;3.20;2.30;;;;;;;17.67;41.73;100539.06;5053743;28;20079;-65
2022/06/21 12:26:47;;;;;;;3.85;3.25;;;;;;;17.75;41.74;100523.50;5052509;28;20485;-65
2022/06/21 12:29:16;;;;;;;2.95;2.60;;;;;;;17.95;41.25;100542.28;5053609;28;20086;-65
2022/06/21 12:31:49;;;;;;;2.95;2.53;;;;;;;17.81;41.38;100525.34;5053715;28;20033;-67
2022/06/21 12:34:20;;;;;;;4.15;3.22;;;;;;;17.84;40.64;100534.84;5052371;28;20078;-64